Time;durP1;ratioP1;P1;durP2;ratioP2;P2;SDS_P1;SDS_P2;PMS_P1;PMS_P2;Temp;Humidity;BMP_temperature;BMP_pressure;BME280_temperature;BME280_humidity;BME280_pressure;Samples;Min_cycle;Max_cycle;Signal;HPM_P1;HPM_P2
2023/05/01 00:00:03;;;;;;;1999.90;999.90;;;8.50;99.90;;;;;;5072926;28;20594;-73
2023/05/01 00:02:29;;;;;;;1999.90;999.90;;;8.50;99.90;;;;;;5074274;28;20029;-73
2023/05/01 00:04:55;;;;;;;1999.90;999.90;;;8.50;99.90;;;;;;5073957;28;20029;-73
2023/05/01 00:07:21;;;;;;;1999.90;999.90;;;8.40;99.90;;;;;;5055867;28;20033;-73
2023/05/01 00:09:46;;;;;;;1999.90;999.90;;;8.40;99.90;;;;;;5074236;28;20095;-73
2023/05/01 00:12:12;;;;;;;1999.90;999.90;;;8.40;99.90;;;;;;5074077;28;20045;-73
2023/05/01 00:14:38;;;;;;;1999.90;999.90;;;8.40;99.90;;;;;;5073827;28;20094;-73
2023/05/01 00:17:05;;;;;;;1999.90;999.90;;;8.40;99.90;;;;;;5074246;28;20032;-73
2023/05/01 00:19:30;;;;;;;1999.90;999.90;;;8.40;99.90;;;;;;5074014;28;20491;-73
2023/05/01 00:21:56;;;;;;;1999.90;999.90;;;8.40;99.90;;;;;;5056033;28;20069;-73
2023/05/01 00:24:21;;;;;;;1999.90;999.90;;;8.40;99.90;;;;;;5054930;28;20433;-73
2023/05/01 00:26:47;;;;;;;1999.90;999.90;;;8.40;99.90;;;;;;5073925;28;20041;-73
2023/05/01 00:29:13;;;;;;;1999.90;999.90;;;8.40;99.90;;;;;;5074091;28;20482;-73
2023/05/01 00:31:40;;;;;;;1999.90;999.90;;;8.40;99.90;;;;;;5073817;28;20451;-73
2023/05/01 00:34:06;;;;;;;1999.90;999.90;;;8.40;99.90;;;;;;5073519;28;20522;-73
2023/05/01 00:36:31;;;;;;;1999.90;999.90;;;8.40;99.90;;;;;;5074023;28;20044;-73
2023/05/01 00:38:57;;;;;;;1999.90;999.90;;;8.40;99.90;;;;;;5073744;28;20059;-73
2023/05/01 00:41:22;;;;;;;1999.90;999.90;;;8.30;99.90;;;;;;5073994;28;20033;-73
2023/05/01 00:43:48;;;;;;;1999.90;999.90;;;8.30;99.90;;;;;;5073795;28;20068;-73
2023/05/01 00:46:13;;;;;;;1999.90;999.90;;;8.30;99.90;;;;;;5073961;28;20039;-73
2023/05/01 00:48:39;;;;;;;1999.90;999.90;;;8.30;99.90;;;;;;5074013;28;20044;-73
2023/05/01 00:51:07;;;;;;;1999.90;999.90;;;8.30;99.90;;;;;;5073791;28;20029;-73
2023/05/01 00:53:33;;;;;;;1999.90;999.90;;;8.30;99.90;;;;;;5073318;28;20041;-73
2023/05/01 00:55:59;;;;;;;1999.90;999.90;;;8.20;99.90;;;;;;5073175;28;20688;-73
2023/05/01 00:58:25;;;;;;;1999.90;999.90;;;8.20;99.90;;;;;;5073647;28;20480;-73
2023/05/01 01:00:51;;;;;;;1999.90;999.90;;;8.20;99.90;;;;;;5073687;28;20110;-73
2023/05/01 01:03:17;;;;;;;1999.90;999.90;;;8.20;99.90;;;;;;5073426;28;20041;-73
2023/05/01 01:05:54;;;;;;;1999.90;999.90;;;8.10;99.90;;;;;;5073000;28;20483;-73
2023/05/01 01:08:28;;;;;;;1999.90;999.90;;;8.10;99.90;;;;;;5073041;28;20115;-73
2023/05/01 01:11:19;;;;;;;1999.90;999.90;;;8.00;99.90;;;;;;5055116;28;20095;-73
2023/05/01 01:13:58;;;;;;;1999.90;999.90;;;8.00;99.90;;;;;;5058489;28;20045;-73
2023/05/01 01:16:24;;;;;;;1999.90;999.90;;;8.00;99.90;;;;;;5077224;28;20029;-73
2023/05/01 01:19:12;;;;;;;1999.90;999.90;;;7.90;99.90;;;;;;5058416;28;20029;-73
2023/05/01 01:21:43;;;;;;;1999.90;999.90;;;7.90;99.90;;;;;;5075644;28;20037;-73
2023/05/01 01:24:33;;;;;;;1999.90;999.90;;;7.90;99.90;;;;;;5069075;28;20041;-73
2023/05/01 01:27:05;;;;;;;1999.90;999.90;;;7.90;99.90;;;;;;5076946;28;20033;-73
2023/05/01 01:29:36;;;;;;;1999.90;999.90;;;8.00;99.90;;;;;;5076552;28;20479;-73
2023/05/01 01:32:25;;;;;;;1999.90;999.90;;;8.00;99.90;;;;;;5076629;28;20041;-73
2023/05/01 01:34:54;;;;;;;1999.90;999.90;;;8.00;99.90;;;;;;5075929;28;20099;-73
2023/05/01 01:37:24;;;;;;;1999.90;999.90;;;8.00;99.90;;;;;;5076302;28;20060;-73
2023/05/01 01:40:01;;;;;;;1999.90;999.90;;;8.00;99.90;;;;;;5075725;28;20112;-73
2023/05/01 01:42:40;;;;;;;1999.90;999.90;;;7.90;99.90;;;;;;5076541;28;20033;-73
2023/05/01 01:45:11;;;;;;;1999.90;999.90;;;8.00;99.90;;;;;;5075196;28;20041;-73
2023/05/01 01:47:41;;;;;;;1999.90;999.90;;;8.00;99.90;;;;;;5076217;28;20509;-73
2023/05/01 01:50:08;;;;;;;1999.90;999.90;;;8.00;99.90;;;;;;5076065;28;20040;-73
2023/05/01 01:52:36;;;;;;;1999.90;999.90;;;8.00;99.90;;;;;;5075969;28;20041;-73
2023/05/01 01:55:08;;;;;;;1999.90;999.90;;;8.00;99.90;;;;;;5075483;28;20470;-73
2023/05/01 01:57:36;;;;;;;1999.90;999.90;;;8.10;99.90;;;;;;5076538;28;20041;-73
2023/05/01 02:00:07;;;;;;;1999.90;999.90;;;8.00;99.90;;;;;;5076082;28;20487;-73
2023/05/01 02:02:38;;;;;;;1999.90;999.90;;;8.00;99.90;;;;;;5076142;28;20043;-73
2023/05/01 02:05:10;;;;;;;1999.90;999.90;;;7.90;99.90;;;;;;5075431;28;20071;-73
2023/05/01 02:07:39;;;;;;;1999.90;999.90;;;7.90;99.90;;;;;;5075477;28;20065;-73
2023/05/01 02:10:06;;;;;;;1999.90;999.90;;;7.90;99.90;;;;;;5075477;28;20033;-73
2023/05/01 02:12:32;;;;;;;1999.90;999.90;;;7.90;99.90;;;;;;5075576;28;20043;-73
2023/05/01 02:14:59;;;;;;;1999.90;999.90;;;7.90;99.90;;;;;;5075564;28;20048;-73
2023/05/01 02:17:26;;;;;;;1999.90;999.90;;;7.80;99.90;;;;;;5075764;28;20549;-73
2023/05/01 02:19:53;;;;;;;1999.90;999.90;;;7.80;99.90;;;;;;5075466;28;20060;-73
2023/05/01 02:22:21;;;;;;;1999.90;999.90;;;7.80;99.90;;;;;;5075002;28;20033;-73
2023/05/01 02:24:47;;;;;;;1999.90;999.90;;;7.80;99.90;;;;;;5074582;28;20116;-73
2023/05/01 02:27:20;;;;;;;1999.90;999.90;;;7.70;99.90;;;;;;5075795;28;20940;-73
2023/05/01 02:29:45;;;;;;;1999.90;999.90;;;7.60;99.90;;;;;;5075814;28;20502;-73
2023/05/01 02:32:11;;;;;;;1999.90;999.90;;;7.60;99.90;;;;;;5075771;28;20080;-73
2023/05/01 02:34:36;;;;;;;1999.90;999.90;;;7.60;99.90;;;;;;5074988;28;20036;-73
2023/05/01 02:37:06;;;;;;;1999.90;999.90;;;7.60;99.90;;;;;;5075282;28;20029;-73
2023/05/01 02:39:33;;;;;;;1999.90;999.90;;;7.60;99.90;;;;;;5075299;28;20037;-73
2023/05/01 02:42:02;;;;;;;1999.90;999.90;;;7.60;99.90;;;;;;5057272;28;20525;-73
2023/05/01 02:44:31;;;;;;;1999.90;999.90;;;7.60;99.90;;;;;;5075007;28;20414;-73
2023/05/01 02:46:59;;;;;;;1999.90;999.90;;;7.60;99.90;;;;;;5075235;28;20068;-73
2023/05/01 02:49:26;;;;;;;1999.90;999.90;;;7.60;99.90;;;;;;5075429;28;20029;-73
2023/05/01 02:51:52;;;;;;;1999.90;999.90;;;7.60;99.90;;;;;;5075434;28;20069;-73
2023/05/01 02:54:19;;;;;;;1999.90;999.90;;;7.60;99.90;;;;;;5074830;28;20091;-73
2023/05/01 02:56:45;;;;;;;1999.90;999.90;;;7.60;99.90;;;;;;5075422;28;20033;-73
2023/05/01 02:59:10;;;;;;;1999.90;999.90;;;7.60;99.90;;;;;;5056964;28;20021;-73
2023/05/01 03:01:36;;;;;;;1999.90;999.90;;;7.60;99.90;;;;;;5074834;28;20040;-73
2023/05/01 03:04:02;;;;;;;1999.90;999.90;;;7.60;99.90;;;;;;5074803;28;20040;-73
2023/05/01 03:06:29;;;;;;;1999.90;999.90;;;7.70;99.90;;;;;;5075785;28;20037;-73
2023/05/01 03:08:55;;;;;;;1999.90;999.90;;;7.70;99.90;;;;;;5074827;28;20037;-73
2023/05/01 03:11:21;;;;;;;1999.90;999.90;;;7.70;99.90;;;;;;5075078;28;20364;-73
2023/05/01 03:13:46;;;;;;;1999.90;999.90;;;7.80;99.90;;;;;;5074883;28;20045;-73
2023/05/01 03:16:12;;;;;;;1999.90;999.90;;;7.80;99.90;;;;;;5074737;28;20109;-73
2023/05/01 03:18:37;;;;;;;1999.90;999.90;;;7.80;99.90;;;;;;5075009;28;20037;-73
2023/05/01 03:21:03;;;;;;;1999.90;999.90;;;7.80;99.90;;;;;;5074340;28;20037;-73
2023/05/01 03:23:28;;;;;;;1999.90;999.90;;;7.90;99.90;;;;;;5074822;28;20041;-73
2023/05/01 03:25:54;;;;;;;1999.90;999.90;;;7.80;99.90;;;;;;5074529;28;20028;-73
2023/05/01 03:28:22;;;;;;;1999.90;999.90;;;7.80;99.90;;;;;;5074955;28;20494;-73
2023/05/01 03:30:49;;;;;;;1999.90;999.90;;;7.80;99.90;;;;;;5074674;28;20462;-73
2023/05/01 03:33:15;;;;;;;1999.90;999.90;;;7.90;99.90;;;;;;5074803;28;20041;-73
2023/05/01 03:35:40;;;;;;;1999.90;999.90;;;7.90;99.90;;;;;;5074158;28;20055;-73
2023/05/01 03:38:06;;;;;;;1999.90;999.90;;;7.90;99.90;;;;;;5074553;28;20041;-73
2023/05/01 03:40:31;;;;;;;1999.90;999.90;;;7.90;99.90;;;;;;5074721;28;20036;-73
2023/05/01 03:42:57;;;;;;;1999.90;999.90;;;7.90;99.90;;;;;;5074593;28;20402;-73
2023/05/01 03:45:23;;;;;;;1999.90;999.90;;;8.00;99.90;;;;;;5073827;28;20083;-73
2023/05/01 03:47:49;;;;;;;1999.90;999.90;;;7.90;99.90;;;;;;5074379;28;20037;-73
2023/05/01 03:50:15;;;;;;;1999.90;999.90;;;8.00;99.90;;;;;;5074461;28;20668;-73
2023/05/01 03:52:40;;;;;;;1999.90;999.90;;;8.00;99.90;;;;;;5074706;28;20033;-73
2023/05/01 03:55:07;;;;;;;1999.90;999.90;;;8.00;99.90;;;;;;5036353;28;20033;-73
2023/05/01 03:57:33;;;;;;;1999.90;999.90;;;8.00;99.90;;;;;;5055185;28;20029;-73
2023/05/01 03:59:59;;;;;;;1999.90;999.90;;;8.10;99.90;;;;;;5074094;28;20434;-73
2023/05/01 04:02:24;;;;;;;1999.90;999.90;;;8.10;99.90;;;;;;5074323;28;20072;-73
2023/05/01 04:04:50;;;;;;;1999.90;999.90;;;8.10;99.90;;;;;;5073557;28;20083;-73
2023/05/01 04:07:16;;;;;;;1999.90;999.90;;;8.10;99.90;;;;;;5074276;28;20090;-73
2023/05/01 04:09:42;;;;;;;1999.90;999.90;;;8.10;99.90;;;;;;5074222;28;20037;-73
2023/05/01 04:12:07;;;;;;;1999.90;999.90;;;8.10;99.90;;;;;;5074383;28;20099;-73
2023/05/01 04:14:33;;;;;;;1999.90;999.90;;;8.10;99.90;;;;;;5040795;28;20037;-73
2023/05/01 04:16:59;;;;;;;1999.90;999.90;;;8.10;99.90;;;;;;5054100;28;20099;-73
2023/05/01 04:19:24;;;;;;;1999.90;999.90;;;8.10;99.90;;;;;;5065403;28;20059;-73
2023/05/01 04:21:50;;;;;;;1999.90;999.90;;;8.10;99.90;;;;;;5073956;28;20041;-73
2023/05/01 04:24:15;;;;;;;1999.90;999.90;;;8.10;99.90;;;;;;5062600;28;20109;-73
2023/05/01 04:26:42;;;;;;;1999.90;999.90;;;8.20;99.90;;;;;;5052511;28;20041;-73
2023/05/01 04:29:07;;;;;;;1999.90;999.90;;;8.30;99.90;;;;;;5054196;28;20053;-73
2023/05/01 04:31:33;;;;;;;1999.90;999.90;;;8.30;99.90;;;;;;5053974;28;20117;-73
2023/05/01 04:33:59;;;;;;;1999.90;999.90;;;8.30;99.90;;;;;;5054304;28;20122;-74
2023/05/01 04:36:25;;;;;;;1999.90;999.90;;;8.40;99.90;;;;;;5054241;28;20030;-74
2023/05/01 04:38:51;;;;;;;1999.90;999.90;;;8.50;99.90;;;;;;5054376;28;20029;-74
2023/05/01 04:41:16;;;;;;;1999.90;999.90;;;8.50;99.90;;;;;;5054034;28;20033;-74
2023/05/01 04:43:42;;;;;;;1999.90;999.90;;;8.50;99.90;;;;;;5062962;28;20037;-73
2023/05/01 04:46:07;;;;;;;1999.90;999.90;;;8.60;99.90;;;;;;5074455;28;20501;-73
2023/05/01 04:48:33;;;;;;;1999.90;999.90;;;8.70;99.90;;;;;;5069597;28;20053;-73
2023/05/01 04:50:58;;;;;;;1999.90;999.90;;;8.80;99.90;;;;;;5057664;28;20064;-73
2023/05/01 04:53:24;;;;;;;1999.90;999.90;;;8.80;99.90;;;;;;5059273;28;20064;-73
2023/05/01 04:55:50;;;;;;;1999.90;999.90;;;8.90;99.90;;;;;;5057348;28;20064;-73
2023/05/01 04:58:15;;;;;;;1999.90;999.90;;;8.90;99.90;;;;;;5057798;28;20045;-74
2023/05/01 05:00:41;;;;;;;1999.90;999.90;;;9.00;99.90;;;;;;5057169;28;20036;-74
2023/05/01 05:03:06;;;;;;;1999.90;999.90;;;9.10;99.90;;;;;;5057301;28;20123;-74
2023/05/01 05:05:32;;;;;;;1999.90;999.90;;;9.20;99.90;;;;;;5057044;28;20084;-74
2023/05/01 05:07:58;;;;;;;1999.90;999.90;;;9.20;99.90;;;;;;5043039;28;20037;-74
2023/05/01 05:10:23;;;;;;;1999.90;999.90;;;9.30;99.90;;;;;;5077023;28;20033;-74
2023/05/01 05:12:49;;;;;;;1999.90;999.90;;;9.40;99.90;;;;;;5075389;28;20037;-74
2023/05/01 05:15:15;;;;;;;1999.90;999.90;;;9.40;99.90;;;;;;5060621;28;20090;-74
2023/05/01 05:17:41;;;;;;;1999.90;999.90;;;9.50;99.90;;;;;;5076514;28;20083;-74
2023/05/01 05:20:07;;;;;;;1999.90;999.90;;;9.70;99.90;;;;;;5076814;28;20037;-74
2023/05/01 05:22:36;;;;;;;1999.90;999.90;;;9.80;99.90;;;;;;5078046;28;20029;-74
2023/05/01 05:25:03;;;;;;;1999.90;999.90;;;10.00;99.90;;;;;;5075718;28;20029;-74
2023/05/01 05:27:31;;;;;;;1999.90;999.90;;;10.10;99.90;;;;;;5077054;28;20040;-73
2023/05/01 05:29:56;;;;;;;1999.90;999.90;;;10.20;99.90;;;;;;5077112;28;20064;-74
2023/05/01 05:32:22;;;;;;;1999.90;999.90;;;10.40;99.90;;;;;;5077242;28;20163;-74
2023/05/01 05:34:48;;;;;;;1999.90;999.90;;;10.50;99.90;;;;;;5040425;28;20033;-74
2023/05/01 05:37:14;;;;;;;1999.90;999.90;;;10.50;99.90;;;;;;5057090;28;20044;-74
2023/05/01 05:39:39;;;;;;;1999.90;999.90;;;10.50;99.90;;;;;;5056629;28;20525;-74
2023/05/01 05:42:05;;;;;;;1999.90;999.90;;;10.60;99.90;;;;;;5056692;28;20092;-74
2023/05/01 05:44:31;;;;;;;1999.90;999.90;;;10.60;99.90;;;;;;5056685;28;20044;-74
2023/05/01 05:46:57;;;;;;;1999.90;999.90;;;10.70;99.90;;;;;;5038525;28;20361;-74
2023/05/01 05:49:22;;;;;;;1999.90;999.90;;;10.60;99.90;;;;;;5070928;28;20095;-74
2023/05/01 05:51:51;;;;;;;1999.90;999.90;;;10.70;99.90;;;;;;5077007;28;20033;-74
2023/05/01 05:54:17;;;;;;;1999.90;999.90;;;10.70;99.90;;;;;;5057940;28;20057;-74
2023/05/01 05:56:42;;;;;;;1999.90;999.90;;;10.70;99.90;;;;;;5077912;28;20132;-74
2023/05/01 05:59:08;;;;;;;1999.90;999.90;;;10.70;99.90;;;;;;5075978;28;20037;-74
2023/05/01 06:01:36;;;;;;;1999.90;999.90;;;10.70;99.90;;;;;;5077703;28;20033;-76
2023/05/01 06:04:01;;;;;;;1999.90;999.90;;;10.80;99.90;;;;;;5064139;28;20030;-75
2023/05/01 06:06:27;;;;;;;1999.90;999.90;;;10.80;99.90;;;;;;5038250;28;20041;-74
2023/05/01 06:08:53;;;;;;;1999.90;999.90;;;10.80;99.90;;;;;;5056063;28;20049;-74
2023/05/01 06:11:20;;;;;;;1999.90;999.90;;;10.80;99.90;;;;;;5055740;28;20033;-74
2023/05/01 06:13:45;;;;;;;1999.90;999.90;;;10.90;99.90;;;;;;5056968;28;20073;-78
2023/05/01 06:16:11;;;;;;;1999.90;999.90;;;10.90;99.90;;;;;;5057138;28;20119;-74
2023/05/01 06:18:37;;;;;;;1999.90;999.90;;;10.90;99.90;;;;;;5062663;28;20100;-75
2023/05/01 06:21:02;;;;;;;1999.90;999.90;;;10.90;99.90;;;;;;5070738;28;20044;-76
2023/05/01 06:23:28;;;;;;;1999.90;999.90;;;11.00;99.90;;;;;;5068293;28;20445;-77
2023/05/01 06:25:53;;;;;;;1999.90;999.90;;;11.00;99.90;;;;;;5068597;28;20029;-79
2023/05/01 06:28:19;;;;;;;1999.90;999.90;;;11.10;99.90;;;;;;5076531;28;20502;-77
2023/05/01 06:30:45;;;;;;;1999.90;999.90;;;11.10;99.90;;;;;;5071364;28;21400;-75
2023/05/01 06:33:10;;;;;;;1999.90;999.90;;;11.20;99.90;;;;;;5075397;28;20033;-77
2023/05/01 06:35:38;;;;;;;1999.90;999.90;;;11.20;99.90;;;;;;5063276;28;20025;-79
2023/05/01 06:38:04;;;;;;;1999.90;999.90;;;11.20;99.90;;;;;;5075527;28;20505;-78
2023/05/01 06:40:30;;;;;;;1999.90;999.90;;;11.30;99.90;;;;;;5074758;28;20044;-77
2023/05/01 06:42:56;;;;;;;1999.90;999.90;;;11.50;99.90;;;;;;5076263;28;20040;-76
2023/05/01 06:45:22;;;;;;;1999.90;999.90;;;11.60;99.90;;;;;;5075909;28;20033;-77
2023/05/01 06:47:47;;;;;;;1999.90;999.90;;;11.70;99.90;;;;;;5076372;28;20069;-76
2023/05/01 06:50:13;;;;;;;1999.90;999.90;;;11.80;99.90;;;;;;5075771;28;20414;-77
2023/05/01 06:52:40;;;;;;;1999.90;999.90;;;11.80;99.90;;;;;;5076075;28;20372;-76
2023/05/01 06:55:06;;;;;;;1999.90;999.90;;;11.90;99.90;;;;;;5055652;28;20103;-77
2023/05/01 06:57:31;;;;;;;1999.90;999.90;;;11.90;99.90;;;;;;5055134;28;20049;-77
2023/05/01 07:00:31;;;;;;;1999.90;999.90;;;12.00;99.90;;;;;;5055449;28;20037;-77
2023/05/01 07:03:39;;;;;;;1999.90;999.90;;;12.10;99.90;;;;;;5043338;28;20041;-76
2023/05/01 07:06:34;;;;;;;1999.90;999.90;;;12.30;99.90;;;;;;4942692;28;20071;-76
2023/05/01 07:08:59;;;;;;;1999.90;999.90;;;12.30;99.90;;;;;;5002620;28;20056;-77
2023/05/01 07:11:25;;;;;;;1999.90;999.90;;;12.40;99.90;;;;;;5067424;28;20040;-76
2023/05/01 07:13:51;;;;;;;1999.90;999.90;;;12.40;99.90;;;;;;5071554;28;20120;-76
2023/05/01 07:16:17;;;;;;;1999.90;999.90;;;12.50;99.90;;;;;;5075447;28;20095;-75
2023/05/01 07:18:42;;;;;;;1999.90;999.90;;;12.60;99.90;;;;;;5067987;28;20444;-75
2023/05/01 07:21:10;;;;;;;1999.90;999.90;;;12.60;99.90;;;;;;5054949;28;20034;-75
2023/05/01 07:23:36;;;;;;;1999.90;999.90;;;12.70;99.90;;;;;;5037458;28;20060;-75
2023/05/01 07:26:08;;;;;;;1999.90;999.90;;;12.80;99.90;;;;;;5054893;28;20025;-76
2023/05/01 07:28:37;;;;;;;1999.90;999.90;;;12.80;99.90;;;;;;5037385;28;20503;-76
2023/05/01 07:31:21;;;;;;;1999.90;999.90;;;13.10;99.90;;;;;;5055154;28;20387;-75
2023/05/01 07:33:47;;;;;;;1999.90;999.90;;;13.40;99.90;;;;;;5038803;28;20053;-74
2023/05/01 07:36:13;;;;;;;1999.90;999.90;;;13.60;99.90;;;;;;5037822;28;20033;-73
2023/05/01 07:38:39;;;;;;;1999.90;999.90;;;13.80;99.90;;;;;;5055139;28;20396;-73
2023/05/01 07:41:05;;;;;;;1999.90;999.90;;;14.00;99.90;;;;;;5055368;28;20025;-76
2023/05/01 07:43:30;;;;;;;1999.90;999.90;;;13.90;99.90;;;;;;5044953;28;20460;-75
2023/05/01 07:46:00;;;;;;;1999.90;999.90;;;14.00;99.90;;;;;;5056406;28;20029;-72
2023/05/01 07:48:27;;;;;;;1999.90;999.90;;;13.90;99.90;;;;;;5074376;28;20490;-73
2023/05/01 07:50:53;;;;;;;1999.90;999.90;;;14.20;99.90;;;;;;5074389;28;20060;-74
2023/05/01 07:53:21;;;;;;;1999.90;999.90;;;14.30;99.90;;;;;;5074564;28;20476;-75
2023/05/01 07:55:46;;;;;;;1999.90;999.90;;;14.50;99.90;;;;;;5064144;28;20479;-74
2023/05/01 07:58:12;;;;;;;1999.90;999.90;;;14.70;99.90;;;;;;5054724;28;20042;-75
2023/05/01 08:00:37;;;;;;;1999.90;999.90;;;14.90;99.90;;;;;;5054094;28;20483;-74
2023/05/01 08:03:03;;;;;;;1999.90;999.90;;;14.80;99.90;;;;;;5054931;28;20060;-73
2023/05/01 08:05:30;;;;;;;1999.90;999.90;;;14.80;99.90;;;;;;5058001;28;20539;-72
2023/05/01 08:07:56;;;;;;;1999.90;999.90;;;14.60;99.90;;;;;;5056468;28;20041;-75
2023/05/01 08:10:21;;;;;;;1999.90;999.90;;;14.30;99.90;;;;;;5074325;28;20479;-75
2023/05/01 08:12:47;;;;;;;1999.90;999.90;;;14.20;99.90;;;;;;5075399;28;20033;-75
2023/05/01 08:15:12;;;;;;;1999.90;999.90;;;14.20;99.90;;;;;;5073789;28;20491;-75
2023/05/01 08:17:38;;;;;;;1999.90;999.90;;;14.10;99.90;;;;;;5075307;28;20040;-75
2023/05/01 08:20:04;;;;;;;1999.90;999.90;;;14.00;99.90;;;;;;5076920;28;20029;-76
2023/05/01 08:22:30;;;;;;;1999.90;999.90;;;14.00;99.90;;;;;;5057008;28;20039;-76
2023/05/01 08:24:55;;;;;;;1999.90;999.90;;;14.10;99.90;;;;;;5057925;28;20479;-76
2023/05/01 08:27:21;;;;;;;1999.90;999.90;;;14.20;99.90;;;;;;5057796;28;20041;-77
2023/05/01 08:29:47;;;;;;;1999.90;999.90;;;14.20;99.90;;;;;;5060335;28;20096;-75
2023/05/01 08:32:13;;;;;;;1999.90;999.90;;;14.30;99.90;;;;;;5040768;28;20041;-76
2023/05/01 08:34:39;;;;;;;1999.90;999.90;;;14.10;99.90;;;;;;5058050;28;20036;-75
2023/05/01 08:37:05;;;;;;;1999.90;999.90;;;14.20;99.90;;;;;;5057267;28;20440;-75
2023/05/01 08:39:30;;;;;;;1999.90;999.90;;;14.20;99.90;;;;;;5056856;28;20188;-76
2023/05/01 08:41:57;;;;;;;1999.90;999.90;;;14.30;99.90;;;;;;5057465;28;20037;-75
2023/05/01 08:44:25;;;;;;;1999.90;999.90;;;14.30;99.90;;;;;;5072692;28;20029;-75
2023/05/01 08:47:15;;;;;;;1999.90;999.90;;;14.40;99.90;;;;;;5077275;28;20033;-75
2023/05/01 08:49:41;;;;;;;1999.90;999.90;;;14.10;99.90;;;;;;5077472;28;20037;-75
2023/05/01 08:52:09;;;;;;;1999.90;999.90;;;14.10;99.90;;;;;;5061046;28;20030;-75
2023/05/01 08:54:37;;;;;;;1999.90;999.90;;;14.10;99.90;;;;;;5074398;28;20061;-75
2023/05/01 08:57:05;;;;;;;1999.90;999.90;;;14.30;99.90;;;;;;5077560;28;20041;-75
2023/05/01 08:59:34;;;;;;;1999.90;999.90;;;14.20;99.90;;;;;;5077111;28;20103;-74
2023/05/01 09:02:04;;;;;;;1999.90;999.90;;;14.30;99.90;;;;;;5059100;28;20038;-75
2023/05/01 09:04:40;;;;;;;1999.90;999.90;;;14.20;99.90;;;;;;5077103;28;20044;-75
2023/05/01 09:07:06;;;;;;;1999.90;999.90;;;14.30;99.90;;;;;;5076383;28;20499;-75
2023/05/01 09:09:32;;;;;;;1999.90;999.90;;;14.40;99.90;;;;;;5076627;28;20490;-75
2023/05/01 09:12:06;;;;;;;1999.90;999.90;;;14.40;99.90;;;;;;5077223;28;20025;-75
2023/05/01 09:14:32;;;;;;;1999.90;999.90;;;14.40;99.90;;;;;;5059881;28;20112;-75
2023/05/01 09:16:58;;;;;;;1999.90;999.90;;;14.20;99.90;;;;;;5072511;28;20037;-75
2023/05/01 09:19:24;;;;;;;1999.90;999.90;;;14.40;99.90;;;;;;5076628;28;20044;-75
2023/05/01 09:21:50;;;;;;;1999.90;999.90;;;14.50;99.90;;;;;;5075598;28;20601;-75
2023/05/01 09:24:16;;;;;;;1999.90;999.90;;;14.60;99.90;;;;;;5044298;28;20036;-76
2023/05/01 09:26:42;;;;;;;1999.90;999.90;;;14.90;99.90;;;;;;5056606;28;20064;-75
2023/05/01 09:29:09;;;;;;;1999.90;999.90;;;15.10;99.90;;;;;;5056364;28;20116;-75
2023/05/01 09:31:35;;;;;;;1999.90;999.90;;;15.50;99.90;;;;;;5056657;28;20390;-75
2023/05/01 09:34:02;;;;;;;1999.90;999.90;;;15.60;99.40;;;;;;5067466;28;20858;-75
2023/05/01 09:36:30;;;;;;;1999.90;999.90;;;15.70;99.90;;;;;;5065803;28;20045;-76
2023/05/01 09:38:56;;;;;;;1999.90;999.90;;;16.20;98.90;;;;;;5056206;28;20120;-75
2023/05/01 09:41:22;;;;;;;1999.90;999.90;;;16.30;97.40;;;;;;5056196;28;20029;-75
2023/05/01 09:43:50;;;;;;;1999.90;999.90;;;16.30;97.30;;;;;;5065598;28;20550;-75
2023/05/01 09:46:16;;;;;;;1999.90;999.90;;;16.30;96.10;;;;;;5077431;28;20028;-75
2023/05/01 09:48:54;;;;;;;1999.90;999.90;;;16.50;96.80;;;;;;5076644;28;20037;-76
2023/05/01 09:51:21;;;;;;;1999.90;999.90;;;17.20;96.20;;;;;;5076379;28;20036;-75
2023/05/01 09:53:52;;;;;;;1999.90;999.90;;;17.60;94.90;;;;;;5076280;28;20033;-75
2023/05/01 09:56:20;;;;;;;1999.90;999.90;;;17.50;94.40;;;;;;5076373;28;20037;-75
2023/05/01 09:58:46;;;;;;;1999.90;999.90;;;17.60;94.10;;;;;;5076452;28;20116;-75
2023/05/01 10:01:12;;;;;;;1999.90;999.90;;;17.30;95.60;;;;;;5058018;28;20040;-75
2023/05/01 10:03:38;;;;;;;1999.90;999.90;;;17.30;94.50;;;;;;5068622;28;20037;-75
2023/05/01 10:06:03;;;;;;;1999.90;999.90;;;17.00;95.50;;;;;;5055877;28;20038;-74
2023/05/01 10:08:49;;;;;;;1999.90;999.90;;;16.80;95.30;;;;;;5055891;28;20037;-75
2023/05/01 10:11:15;;;;;;;1999.90;999.90;;;16.90;95.60;;;;;;5055880;28;20087;-75
2023/05/01 10:13:41;;;;;;;1999.90;999.90;;;17.00;96.30;;;;;;5063924;28;20087;-75
2023/05/01 10:16:26;;;;;;;1999.90;999.90;;;17.50;96.90;;;;;;5057587;28;20078;-75
2023/05/01 10:18:54;;;;;;;1999.90;999.90;;;17.30;94.70;;;;;;5048278;28;20044;-75
2023/05/01 10:21:20;;;;;;;1999.90;999.90;;;17.30;94.60;;;;;;5036963;28;20068;-76
2023/05/01 10:23:45;;;;;;;1999.90;999.90;;;17.60;95.40;;;;;;5056167;28;20033;-74
2023/05/01 10:26:15;;;;;;;1999.90;999.90;;;18.20;93.30;;;;;;5055656;28;20484;-74
2023/05/01 10:28:42;;;;;;;1999.90;999.90;;;18.30;91.60;;;;;;5055513;28;20045;-74
2023/05/01 10:31:10;;;;;;;1999.90;999.90;;;18.50;91.70;;;;;;5037443;28;20034;-75
2023/05/01 10:33:37;;;;;;;1999.90;999.90;;;18.40;92.10;;;;;;5055417;28;20092;-74
2023/05/01 10:36:05;;;;;;;1999.90;999.90;;;18.50;94.40;;;;;;5055094;28;20033;-74
2023/05/01 10:38:34;;;;;;;1999.90;999.90;;;18.10;94.30;;;;;;5055419;28;20091;-74
2023/05/01 10:41:00;;;;;;;1999.90;999.90;;;18.50;92.20;;;;;;5055202;28;20030;-73
2023/05/01 10:43:31;;;;;;;1999.90;999.90;;;18.50;92.20;;;;;;5053588;28;20034;-74
2023/05/01 10:46:08;;;;;;;1999.90;999.90;;;18.30;91.50;;;;;;5054843;28;20538;-74
2023/05/01 10:48:37;;;;;;;1999.90;999.90;;;18.60;94.20;;;;;;5037103;28;20041;-74
2023/05/01 10:51:10;;;;;;;1999.90;999.90;;;18.90;92.10;;;;;;5055173;28;20100;-75
2023/05/01 10:53:38;;;;;;;1999.90;999.90;;;18.70;91.80;;;;;;5055317;28;20419;-74
2023/05/01 10:56:05;;;;;;;1999.90;999.90;;;18.60;91.90;;;;;;5054846;28;20033;-74
2023/05/01 10:58:36;;;;;;;1999.90;999.90;;;18.70;91.30;;;;;;5055146;28;20025;-74
2023/05/01 11:01:27;;;;;;;1999.90;999.90;;;19.10;91.20;;;;;;5055101;28;20026;-74
2023/05/01 11:03:53;;;;;;;1999.90;999.90;;;19.50;89.40;;;;;;5054948;28;20129;-77
2023/05/01 11:06:19;;;;;;;1999.90;999.90;;;19.40;90.50;;;;;;5055163;28;20034;-74
2023/05/01 11:08:46;;;;;;;1999.90;999.90;;;19.30;91.70;;;;;;5054678;28;20041;-74
2023/05/01 11:11:20;;;;;;;1999.90;999.90;;;19.50;85.70;;;;;;5054643;28;20466;-74
2023/05/01 11:14:09;;;;;;;1999.90;999.90;;;19.30;86.40;;;;;;5054884;28;20034;-79
2023/05/01 11:16:38;;;;;;;1999.90;999.90;;;18.40;89.80;;;;;;5055147;28;20084;-74
2023/05/01 11:19:22;;;;;;;1999.90;999.90;;;18.60;90.90;;;;;;5054830;28;20124;-74
2023/05/01 11:21:49;;;;;;;1999.90;999.90;;;18.70;92.00;;;;;;5054416;28;20043;-74
2023/05/01 11:24:17;;;;;;;1999.90;999.90;;;19.00;89.50;;;;;;5068592;28;20069;-74
2023/05/01 11:26:43;;;;;;;1999.90;999.90;;;18.80;88.40;;;;;;5074945;28;20032;-74
2023/05/01 11:29:10;;;;;;;1999.90;999.90;;;18.90;89.10;;;;;;5074846;28;20458;-74
2023/05/01 11:31:36;;;;;;;1999.90;999.90;;;18.70;89.90;;;;;;5074488;28;20052;-81
2023/05/01 11:34:02;;;;;;;1999.90;999.90;;;18.50;90.40;;;;;;5074706;28;20074;-74
2023/05/01 11:36:29;;;;;;;1999.90;999.90;;;18.60;91.90;;;;;;5074915;28;20033;-75
2023/05/01 11:38:58;;;;;;;1999.90;999.90;;;18.80;88.90;;;;;;5074818;28;20560;-76
2023/05/01 11:41:25;;;;;;;1999.90;999.90;;;19.30;86.50;;;;;;5074706;28;20025;-75
2023/05/01 11:43:56;;;;;;;1999.90;999.90;;;19.00;90.70;;;;;;5056193;28;20068;-75
2023/05/01 11:46:26;;;;;;;1999.90;999.90;;;19.30;89.70;;;;;;5074764;28;20128;-75
2023/05/01 11:48:56;;;;;;;1999.90;999.90;;;19.50;90.30;;;;;;5056269;28;20091;-74
2023/05/01 11:51:23;;;;;;;1999.90;999.90;;;19.70;89.30;;;;;;5056427;28;20025;-75
2023/05/01 11:54:06;;;;;;;1999.90;999.90;;;20.00;86.10;;;;;;5056260;28;20116;-76
2023/05/01 11:56:33;;;;;;;1999.90;999.90;;;19.80;85.30;;;;;;5074604;28;20120;-78
2023/05/01 11:59:14;;;;;;;1999.90;999.90;;;19.80;87.50;;;;;;5074509;28;20625;-76
2023/05/01 12:01:43;;;;;;;1999.90;999.90;;;19.50;87.20;;;;;;5056563;28;20116;-76
2023/05/01 12:04:10;;;;;;;1999.90;999.90;;;19.50;87.80;;;;;;5075068;28;20037;-76
2023/05/01 12:06:43;;;;;;;1999.90;999.90;;;19.60;86.80;;;;;;5074990;28;20037;-76